createdAt,value
2023-04-26T00:00:55.460Z,456.20
2023-04-26T00:03:25.496Z,408.27
2023-04-26T00:05:55.643Z,471.10
2023-04-26T00:08:23.965Z,478.27
2023-04-26T00:10:52.234Z,480.00
2023-04-26T00:13:20.812Z,467.10
2023-04-26T00:15:49.165Z,450.98
2023-04-26T00:18:17.731Z,443.25
2023-04-26T00:20:46.252Z,455.65
2023-04-26T00:23:16.110Z,457.35
2023-04-26T00:25:44.563Z,387.40
2023-04-26T00:28:12.892Z,351.80
2023-04-26T00:30:42.256Z,329.85
2023-04-26T00:33:10.608Z,365.20
2023-04-26T00:35:39.553Z,414.77
2023-04-26T00:38:08.140Z,330.98
2023-04-26T00:40:37.828Z,443.15
2023-04-26T00:43:07.882Z,352.67
2023-04-26T00:45:36.379Z,418.48
2023-04-26T00:48:05.056Z,305.42
2023-04-26T00:50:33.659Z,356.08
2023-04-26T00:53:04.101Z,434.55
2023-04-26T00:55:32.981Z,297.02
2023-04-26T00:58:02.817Z,439.95
2023-04-26T01:00:31.180Z,416.30
2023-04-26T01:02:59.638Z,428.35
2023-04-26T01:05:28.014Z,367.83
2023-04-26T01:07:56.650Z,453.10
2023-04-26T01:10:25.628Z,381.17
2023-04-26T01:12:54.070Z,412.95
2023-04-26T01:15:23.860Z,435.08
2023-04-26T01:17:52.459Z,434.13
2023-04-26T01:20:21.419Z,379.15
2023-04-26T01:22:52.072Z,392.25
2023-04-26T01:25:20.671Z,412.55
2023-04-26T01:27:49.049Z,393.52
2023-04-26T01:30:17.359Z,329.80
2023-04-26T01:32:46.071Z,376.88
2023-04-26T01:35:14.867Z,322.60
2023-04-26T01:37:43.405Z,361.30
2023-04-26T01:40:14.259Z,428.52
2023-04-26T01:42:42.694Z,334.48
2023-04-26T01:45:12.240Z,440.48
2023-04-26T01:47:40.695Z,332.67
2023-04-26T01:50:10.769Z,376.15
2023-04-26T01:52:39.117Z,354.50
2023-04-26T01:55:08.755Z,391.05
2023-04-26T01:57:38.484Z,435.50
2023-04-26T02:00:08.686Z,417.20
2023-04-26T02:02:37.158Z,387.63
2023-04-26T02:05:06.367Z,407.15
2023-04-26T02:07:34.810Z,377.95
2023-04-26T02:10:03.476Z,430.73
2023-04-26T02:12:32.060Z,415.30
2023-04-26T02:15:01.796Z,386.75
2023-04-26T02:17:30.777Z,423.33
2023-04-26T02:19:59.196Z,420.30
2023-04-26T02:22:27.872Z,443.33
2023-04-26T02:24:56.442Z,437.63
2023-04-26T02:27:24.745Z,446.27
2023-04-26T02:29:53.033Z,455.98
2023-04-26T02:32:22.914Z,427.95
2023-04-26T02:34:51.552Z,450.15
2023-04-26T02:37:21.819Z,427.48
2023-04-26T02:39:52.133Z,432.67
2023-04-26T02:42:20.529Z,438.38
2023-04-26T02:44:48.905Z,451.48
2023-04-26T02:47:21.273Z,462.02
2023-04-26T02:49:52.402Z,470.45
2023-04-26T02:52:20.716Z,434.50
2023-04-26T02:54:49.095Z,465.13
2023-04-26T02:57:17.349Z,463.00
2023-04-26T02:59:45.693Z,479.95
2023-04-26T03:02:14.273Z,459.77
2023-04-26T03:04:42.653Z,464.20
2023-04-26T03:07:12.468Z,474.88
2023-04-26T03:09:40.922Z,445.27
2023-04-26T03:12:09.491Z,467.77
2023-04-26T03:14:37.879Z,482.52
2023-04-26T03:17:06.229Z,453.92
2023-04-26T03:19:34.624Z,474.48
2023-04-26T03:22:02.985Z,488.80
2023-04-26T03:24:32.728Z,474.17
2023-04-26T03:27:01.144Z,501.10
2023-04-26T03:29:29.491Z,511.80
2023-04-26T03:31:58.058Z,532.45
2023-04-26T03:34:27.349Z,505.33
2023-04-26T03:36:55.939Z,568.63
2023-04-26T03:39:24.547Z,557.20
2023-04-26T03:41:54.309Z,567.38
2023-04-26T03:44:22.759Z,592.05
2023-04-26T03:46:51.401Z,569.03
2023-04-26T03:49:20.030Z,562.65
2023-04-26T03:51:48.545Z,585.33
2023-04-26T03:54:17.501Z,574.10
2023-04-26T03:56:46.046Z,579.97
2023-04-26T03:59:16.083Z,583.88
2023-04-26T04:01:44.447Z,577.92
2023-04-26T04:04:13.004Z,576.15
2023-04-26T04:06:41.540Z,568.80
2023-04-26T04:09:09.894Z,590.28
2023-04-26T04:11:38.198Z,597.42
2023-04-26T04:14:07.321Z,602.40
2023-04-26T04:16:37.070Z,569.97
2023-04-26T04:19:05.501Z,572.40
2023-04-26T04:21:34.110Z,598.05
2023-04-26T04:24:03.209Z,588.78
2023-04-26T04:26:31.829Z,594.50
2023-04-26T04:29:08.679Z,590.40
2023-04-26T04:31:39.968Z,566.97
2023-04-26T04:34:21.449Z,592.13
2023-04-26T04:36:50.541Z,597.75
2023-04-26T04:39:19.029Z,584.20
2023-04-26T04:41:48.962Z,569.00
2023-04-26T04:44:17.454Z,627.00
2023-04-26T04:46:47.337Z,580.58
2023-04-26T04:49:16.034Z,590.70
2023-04-26T04:51:44.587Z,574.47
2023-04-26T04:54:13.747Z,523.10
2023-04-26T04:56:42.645Z,540.15
2023-04-26T04:59:11.288Z,498.08
2023-04-26T05:01:39.657Z,479.33
2023-04-26T05:04:09.614Z,530.03
2023-04-26T05:06:38.457Z,531.55
2023-04-26T05:09:06.944Z,447.67
2023-04-26T05:11:35.393Z,369.80
2023-04-26T05:14:03.745Z,413.95
2023-04-26T05:16:32.565Z,375.92
2023-04-26T05:19:00.996Z,476.65
2023-04-26T05:21:31.589Z,663.03
2023-04-26T05:23:59.947Z,414.80
2023-04-26T05:26:28.298Z,374.77
2023-04-26T05:28:56.696Z,342.83
2023-04-26T05:31:25.205Z,443.33
2023-04-26T05:33:53.672Z,409.38
2023-04-26T05:36:22.865Z,627.75
2023-04-26T05:38:52.638Z,397.67
2023-04-26T05:41:21.139Z,392.70
2023-04-26T05:43:49.641Z,473.48
2023-04-26T05:46:18.240Z,587.95
2023-04-26T05:48:46.694Z,587.58
2023-04-26T05:51:15.090Z,364.75
2023-04-26T05:53:43.442Z,452.92
2023-04-26T05:56:13.125Z,404.25
2023-04-26T05:58:41.893Z,549.67
2023-04-26T06:01:10.232Z,386.88
2023-04-26T06:03:39.034Z,444.65
2023-04-26T06:06:08.010Z,465.75
2023-04-26T06:08:36.427Z,676.92
2023-04-26T06:11:05.414Z,487.50
2023-04-26T06:13:35.273Z,402.88
2023-04-26T06:16:03.610Z,369.90
2023-04-26T06:18:31.950Z,587.13
2023-04-26T06:21:00.358Z,443.08
2023-04-26T06:23:28.702Z,511.17
2023-04-26T06:25:57.109Z,335.25
2023-04-26T06:28:25.516Z,499.63
2023-04-26T06:30:55.342Z,366.05
2023-04-26T06:33:23.681Z,315.40
2023-04-26T06:35:52.290Z,369.73
2023-04-26T06:38:21.007Z,505.08
2023-04-26T06:40:49.325Z,425.50
2023-04-26T06:43:18.029Z,402.83
2023-04-26T06:45:46.458Z,386.17
2023-04-26T06:48:16.363Z,395.15
2023-04-26T06:50:44.716Z,458.15
2023-04-26T06:53:13.077Z,514.80
2023-04-26T06:55:41.450Z,479.73
2023-04-26T06:58:09.860Z,223.52
2023-04-26T07:00:38.195Z,549.78
2023-04-26T07:03:06.734Z,258.92
2023-04-26T07:05:36.512Z,270.67
2023-04-26T07:08:04.971Z,317.45
2023-04-26T07:10:34.257Z,410.15
2023-04-26T07:13:02.810Z,512.65
2023-04-26T07:15:31.258Z,277.23
2023-04-26T07:17:59.647Z,374.73
2023-04-26T07:20:27.999Z,369.38
2023-04-26T07:22:57.686Z,322.60
2023-04-26T07:25:26.155Z,392.58
2023-04-26T07:27:54.500Z,344.20
2023-04-26T07:30:23.119Z,297.27
2023-04-26T07:32:53.232Z,267.75
2023-04-26T07:35:21.951Z,336.00
2023-04-26T07:37:50.968Z,311.73
2023-04-26T07:40:22.740Z,272.92
2023-04-26T07:42:51.072Z,291.10
2023-04-26T07:45:19.557Z,310.30
2023-04-26T07:47:47.903Z,278.90
2023-04-26T07:50:16.727Z,384.77
2023-04-26T07:52:45.079Z,316.65
2023-04-26T07:55:14.130Z,327.98
2023-04-26T07:57:44.920Z,299.88
2023-04-26T08:00:15.868Z,353.10
2023-04-26T08:02:45.887Z,331.25
2023-04-26T08:05:14.807Z,528.72
2023-04-26T08:07:43.860Z,301.80
2023-04-26T08:10:12.778Z,291.42
2023-04-26T08:12:41.209Z,302.15
2023-04-26T08:15:12.528Z,439.58
2023-04-26T08:17:41.695Z,279.35
2023-04-26T08:20:11.030Z,322.63
2023-04-26T08:22:39.369Z,423.50
2023-04-26T08:25:08.288Z,276.48
2023-04-26T08:27:37.392Z,358.35
2023-04-26T08:30:06.701Z,352.90
2023-04-26T08:32:36.573Z,213.90
2023-04-26T08:35:05.686Z,242.15
2023-04-26T08:37:34.724Z,264.05
2023-04-26T08:40:04.119Z,329.13
2023-04-26T08:42:33.174Z,305.08
2023-04-26T08:45:03.675Z,270.10
2023-04-26T08:47:43.810Z,278.02
2023-04-26T08:50:14.827Z,277.95
2023-04-26T08:52:44.430Z,188.45
2023-04-26T08:55:14.500Z,297.45
2023-04-26T08:57:43.546Z,522.35
2023-04-26T09:00:13.513Z,222.43
2023-04-26T09:02:44.261Z,231.50
2023-04-26T09:05:13.110Z,301.08
2023-04-26T09:07:46.906Z,210.52
2023-04-26T09:10:21.109Z,275.10
2023-04-26T09:15:21.697Z,330.08
2023-04-26T09:17:52.576Z,281.65
2023-04-26T09:20:23.737Z,366.95
2023-04-26T09:22:52.993Z,260.73
2023-04-26T09:25:28.167Z,268.10
2023-04-26T09:27:56.628Z,243.63
2023-04-26T09:30:25.353Z,434.05
2023-04-26T09:32:56.556Z,334.38
2023-04-26T09:35:30.288Z,299.95
2023-04-26T09:38:05.598Z,286.75
2023-04-26T09:40:39.091Z,394.83
2023-04-26T09:43:09.323Z,420.77
2023-04-26T09:45:46.132Z,218.13
2023-04-26T09:48:17.616Z,219.98
2023-04-26T09:50:46.956Z,385.63
2023-04-26T09:53:28.202Z,390.52
2023-04-26T09:55:56.628Z,188.45
2023-04-26T09:58:24.958Z,334.27
2023-04-26T10:00:54.537Z,329.65
2023-04-26T10:03:24.847Z,299.38
2023-04-26T10:05:53.929Z,319.35
2023-04-26T10:08:22.260Z,212.40
2023-04-26T10:10:51.353Z,216.52
2023-04-26T10:13:20.790Z,261.83
2023-04-26T10:15:50.044Z,242.77
2023-04-26T10:18:18.701Z,269.58
2023-04-26T10:20:53.012Z,343.60
2023-04-26T10:23:22.585Z,196.57
2023-04-26T10:25:50.954Z,213.02
2023-04-26T10:28:20.014Z,272.33
2023-04-26T10:30:57.862Z,321.63
2023-04-26T10:33:27.263Z,225.30
2023-04-26T10:36:10.980Z,290.17
2023-04-26T10:38:40.879Z,270.30
2023-04-26T10:41:31.939Z,270.20
2023-04-26T10:44:01.876Z,361.25
2023-04-26T10:46:40.939Z,307.67
2023-04-26T10:49:20.085Z,243.25
2023-04-26T10:52:15.095Z,252.00
2023-04-26T10:54:52.490Z,233.82
2023-04-26T10:57:21.630Z,284.83
2023-04-26T11:00:22.221Z,325.15
2023-04-26T11:02:59.439Z,337.98
2023-04-26T11:05:42.961Z,405.35
2023-04-26T11:08:21.538Z,303.15
2023-04-26T11:10:58.247Z,222.93
2023-04-26T11:13:26.850Z,247.50
2023-04-26T11:15:55.895Z,224.00
2023-04-26T11:18:24.906Z,214.90
2023-04-26T11:20:53.718Z,262.42
2023-04-26T11:23:24.869Z,239.20
2023-04-26T11:25:54.962Z,242.50
2023-04-26T11:28:23.455Z,259.08
2023-04-26T11:30:52.072Z,240.02
2023-04-26T11:33:23.042Z,315.48
2023-04-26T11:35:52.018Z,224.90
2023-04-26T11:38:24.070Z,231.52
2023-04-26T11:40:56.257Z,329.88
2023-04-26T11:43:30.279Z,223.32
2023-04-26T11:46:01.557Z,258.00
2023-04-26T11:48:30.189Z,221.65
2023-04-26T11:50:59.531Z,260.90
2023-04-26T11:53:37.492Z,276.15
2023-04-26T11:56:06.522Z,242.00
2023-04-26T11:58:35.001Z,246.95
2023-04-26T12:01:03.994Z,337.27
2023-04-26T12:03:33.944Z,303.58
2023-04-26T12:06:02.952Z,288.60
2023-04-26T12:08:34.595Z,221.70
2023-04-26T12:11:04.244Z,270.50
2023-04-26T12:13:33.011Z,261.40
2023-04-26T12:16:01.754Z,281.75
2023-04-26T12:18:33.102Z,264.67
2023-04-26T12:21:02.244Z,275.20
2023-04-26T12:23:40.825Z,298.20
2023-04-26T12:26:11.185Z,223.65
2023-04-26T12:28:40.035Z,240.13
2023-04-26T12:31:08.730Z,341.15
2023-04-26T12:33:37.474Z,305.48
2023-04-26T12:36:13.401Z,252.38
2023-04-26T12:38:43.366Z,277.05
2023-04-26T12:41:11.739Z,220.27
2023-04-26T12:43:40.194Z,231.25
2023-04-26T12:46:08.834Z,315.38
2023-04-26T12:48:37.286Z,247.02
2023-04-26T12:51:06.939Z,300.80
2023-04-26T12:53:35.408Z,288.13
2023-04-26T12:56:05.774Z,295.45
2023-04-26T12:58:34.247Z,292.05
2023-04-26T13:01:02.720Z,453.63
2023-04-26T13:03:31.277Z,299.90
2023-04-26T13:05:59.936Z,328.25
2023-04-26T13:08:28.465Z,251.90
2023-04-26T13:10:57.074Z,224.82
2023-04-26T13:13:42.900Z,286.92
2023-04-26T13:16:13.359Z,264.33
2023-04-26T13:18:42.471Z,489.65
2023-04-26T13:21:10.976Z,329.80
2023-04-26T13:23:39.451Z,239.93
2023-04-26T13:26:08.018Z,386.35
2023-04-26T13:28:38.277Z,235.93
2023-04-26T13:31:07.405Z,239.15
2023-04-26T13:33:36.032Z,254.27
2023-04-26T13:36:04.660Z,262.48
2023-04-26T13:38:33.212Z,303.23
2023-04-26T13:41:01.703Z,268.85
2023-04-26T13:43:30.458Z,311.60
2023-04-26T13:46:00.870Z,257.92
2023-04-26T13:48:29.347Z,283.05
2023-04-26T13:50:58.855Z,262.27
2023-04-26T13:53:27.347Z,284.95
2023-04-26T13:55:55.757Z,348.77
2023-04-26T13:58:24.170Z,269.10
2023-04-26T14:00:52.698Z,271.60
2023-04-26T14:03:22.807Z,358.00
2023-04-26T14:05:51.386Z,289.05
2023-04-26T14:08:19.762Z,297.75
2023-04-26T14:10:48.144Z,321.63
2023-04-26T14:13:17.165Z,361.83
2023-04-26T14:15:48.192Z,378.77
2023-04-26T14:18:17.419Z,280.33
2023-04-26T14:20:48.172Z,442.50
2023-04-26T14:23:16.880Z,275.70
2023-04-26T14:25:45.283Z,394.90
2023-04-26T14:28:17.462Z,306.45
2023-04-26T14:30:46.263Z,352.77
2023-04-26T14:33:14.923Z,257.85
2023-04-26T14:35:43.568Z,266.30
2023-04-26T14:38:14.209Z,292.00
2023-04-26T14:40:43.036Z,261.50
2023-04-26T14:43:11.952Z,316.33
2023-04-26T14:45:44.531Z,250.90
2023-04-26T14:48:26.480Z,319.25
2023-04-26T14:51:01.017Z,318.50
2023-04-26T14:53:37.033Z,238.55
2023-04-26T14:56:07.964Z,320.98
2023-04-26T14:58:37.177Z,297.95
2023-04-26T15:01:06.685Z,473.05
2023-04-26T15:03:49.095Z,254.85
2023-04-26T15:06:43.846Z,276.83
2023-04-26T15:09:14.363Z,367.05
2023-04-26T15:11:42.785Z,318.70
2023-04-26T15:14:11.214Z,264.88
2023-04-26T15:16:39.716Z,275.25
2023-04-26T15:19:08.624Z,302.27
2023-04-26T15:21:37.016Z,282.77
2023-04-26T15:24:07.643Z,351.38
2023-04-26T15:26:37.654Z,370.40
2023-04-26T15:29:06.296Z,267.10
2023-04-26T15:31:35.151Z,296.48
2023-04-26T15:34:04.786Z,254.48
2023-04-26T15:36:33.427Z,255.18
2023-04-26T15:39:01.954Z,313.10
2023-04-26T15:41:30.445Z,317.85
2023-04-26T15:44:00.784Z,323.75
2023-04-26T15:46:29.371Z,301.92
2023-04-26T15:48:57.951Z,334.60
2023-04-26T15:51:26.687Z,256.80
2023-04-26T15:53:55.482Z,362.27
2023-04-26T15:56:24.056Z,267.00
2023-04-26T15:58:52.663Z,336.70
2023-04-26T16:01:22.521Z,275.10
2023-04-26T16:03:52.814Z,322.77
2023-04-26T16:06:21.342Z,363.85
2023-04-26T16:08:49.767Z,338.50
2023-04-26T16:11:18.244Z,476.95
2023-04-26T16:13:51.733Z,295.50
2023-04-26T16:16:21.689Z,298.27
2023-04-26T16:18:50.250Z,401.55
2023-04-26T16:21:19.063Z,257.70
2023-04-26T16:23:49.487Z,339.15
2023-04-26T16:26:17.890Z,350.30
2023-04-26T16:28:46.323Z,459.55
2023-04-26T16:31:15.034Z,272.50
2023-04-26T16:33:44.879Z,422.73
2023-04-26T16:36:13.296Z,373.65
2023-04-26T16:38:41.766Z,347.30
2023-04-26T16:41:10.510Z,580.00
2023-04-26T16:43:39.043Z,360.10
2023-04-26T16:46:09.962Z,327.55
2023-04-26T16:48:39.542Z,280.95
2023-04-26T16:51:09.516Z,267.17
2023-04-26T16:53:38.399Z,424.27
2023-04-26T16:56:07.767Z,359.80
2023-04-26T16:58:36.271Z,368.75
2023-04-26T17:01:04.994Z,301.63
2023-04-26T17:03:33.680Z,286.20
2023-04-26T17:06:02.513Z,335.52
2023-04-26T17:08:32.311Z,344.90
2023-04-26T17:11:01.366Z,432.50
2023-04-26T17:13:32.923Z,399.77
2023-04-26T17:16:02.070Z,351.38
2023-04-26T17:18:30.709Z,376.23
2023-04-26T17:20:59.150Z,272.33
2023-04-26T17:23:27.678Z,322.98
2023-04-26T17:25:57.580Z,405.70
2023-04-26T17:28:26.302Z,314.15
2023-04-26T17:30:54.777Z,308.50
2023-04-26T17:33:23.311Z,483.38
2023-04-26T17:35:51.928Z,489.83
2023-04-26T17:38:20.678Z,445.25
2023-04-26T17:40:54.641Z,421.35
2023-04-26T17:43:24.643Z,736.10
2023-04-26T17:45:53.245Z,402.63
2023-04-26T17:48:22.256Z,439.27
2023-04-26T17:50:52.935Z,333.20
2023-04-26T17:53:22.030Z,343.15
2023-04-26T17:55:51.436Z,317.52
2023-04-26T17:58:20.215Z,359.05
2023-04-26T18:00:50.655Z,425.30
2023-04-26T18:03:20.648Z,471.85
2023-04-26T18:05:49.785Z,437.45
2023-04-26T18:08:18.417Z,563.90
2023-04-26T18:10:48.612Z,472.70
2023-04-26T18:13:18.278Z,396.90
2023-04-26T18:15:47.091Z,403.35
2023-04-26T18:18:17.539Z,436.02
2023-04-26T18:20:46.237Z,356.10
2023-04-26T18:23:14.855Z,473.50
2023-04-26T18:25:43.616Z,429.73
2023-04-26T18:28:18.410Z,352.95
2023-04-26T18:30:58.943Z,415.52
2023-04-26T18:33:48.152Z,402.48
2023-04-26T18:40:14.222Z,471.88
2023-04-26T18:42:45.078Z,419.85
2023-04-26T18:45:14.730Z,417.02
2023-04-26T18:47:46.527Z,395.00
2023-04-26T18:50:16.702Z,405.80
2023-04-26T18:52:45.244Z,394.05
2023-04-26T18:55:19.817Z,402.40
2023-04-26T19:00:17.234Z,401.48
2023-04-26T19:02:45.978Z,395.92
2023-04-26T19:05:16.155Z,416.08
2023-04-26T19:07:45.552Z,403.38
2023-04-26T19:10:16.243Z,410.23
2023-04-26T19:12:44.788Z,436.77
2023-04-26T19:15:14.208Z,608.42
2023-04-26T19:17:42.863Z,407.63
2023-04-26T19:20:16.930Z,477.17
2023-04-26T19:22:46.166Z,531.22
2023-04-26T19:25:26.796Z,613.17
2023-04-26T19:27:55.381Z,431.52
2023-04-26T19:30:24.098Z,420.30
2023-04-26T19:32:52.560Z,416.67
2023-04-26T19:35:22.393Z,446.67
2023-04-26T19:37:50.918Z,438.70
2023-04-26T19:40:19.469Z,412.40
2023-04-26T19:42:48.107Z,420.02
2023-04-26T19:45:20.335Z,465.33
2023-04-26T19:47:49.413Z,414.60
2023-04-26T19:50:18.186Z,429.60
2023-04-26T19:52:48.237Z,668.00
2023-04-26T19:55:16.730Z,372.17
2023-04-26T19:57:45.188Z,405.58
2023-04-26T20:00:15.903Z,451.27
2023-04-26T20:02:44.577Z,397.90
2023-04-26T20:05:13.342Z,440.65
2023-04-26T20:07:42.026Z,431.17
2023-04-26T20:10:12.761Z,431.02
2023-04-26T20:12:47.338Z,434.60
2023-04-26T20:17:50.401Z,398.27
2023-04-26T20:20:18.922Z,389.90
2023-04-26T20:22:47.431Z,361.70
2023-04-26T20:25:19.722Z,421.27
2023-04-26T20:27:48.372Z,390.67
2023-04-26T20:30:17.050Z,410.90
2023-04-26T20:32:45.648Z,398.30
2023-04-26T20:35:14.154Z,388.67
2023-04-26T20:37:42.777Z,391.83
2023-04-26T20:40:11.875Z,390.10
2023-04-26T20:42:41.665Z,428.13
2023-04-26T20:45:11.428Z,383.17
2023-04-26T20:47:39.848Z,387.15
2023-04-26T20:50:09.382Z,376.63
2023-04-26T20:52:37.818Z,362.17
2023-04-26T20:55:07.150Z,366.90
2023-04-26T20:57:36.084Z,364.95
2023-04-26T21:00:07.491Z,357.20
2023-04-26T21:02:36.153Z,387.65
2023-04-26T21:05:05.427Z,359.90
2023-04-26T21:07:33.907Z,415.40
2023-04-26T21:10:02.367Z,385.35
2023-04-26T21:12:30.943Z,351.73
2023-04-26T21:14:59.521Z,340.13
2023-04-26T21:17:29.366Z,366.13
2023-04-26T21:19:57.783Z,406.08
2023-04-26T21:22:26.148Z,386.63
2023-04-26T21:24:54.576Z,348.38
2023-04-26T21:27:22.944Z,359.50
2023-04-26T21:29:51.342Z,350.98
2023-04-26T21:32:19.867Z,388.20
2023-04-26T21:34:49.702Z,338.65
2023-04-26T21:37:18.108Z,328.65
2023-04-26T21:39:46.577Z,323.60
2023-04-26T21:42:15.578Z,335.40
2023-04-26T21:44:44.031Z,350.38
2023-04-26T21:47:12.446Z,361.05
2023-04-26T21:49:40.939Z,355.25
2023-04-26T21:52:10.799Z,363.13
2023-04-26T21:54:39.609Z,360.67
2023-04-26T21:57:09.335Z,359.15
2023-04-26T21:59:42.040Z,350.05
2023-04-26T22:02:10.698Z,334.83
2023-04-26T22:04:39.178Z,349.85
2023-04-26T22:07:07.638Z,344.33
2023-04-26T22:09:37.590Z,356.17
2023-04-26T22:12:06.735Z,331.45
2023-04-26T22:14:35.154Z,343.08
2023-04-26T22:17:03.789Z,344.77
2023-04-26T22:19:32.421Z,314.83
2023-04-26T22:22:01.162Z,361.95
2023-04-26T22:24:29.625Z,360.27
2023-04-26T22:26:59.415Z,374.75
2023-04-26T22:29:33.127Z,351.10
2023-04-26T22:32:01.680Z,344.05
2023-04-26T22:34:30.553Z,339.08
2023-04-26T22:37:06.184Z,438.38
2023-04-26T22:39:38.303Z,340.65
2023-04-26T22:42:08.249Z,321.88
2023-04-26T22:44:37.371Z,333.80
2023-04-26T22:47:06.161Z,350.80
2023-04-26T22:49:34.641Z,342.30
2023-04-26T22:52:09.707Z,362.27
2023-04-26T22:54:45.609Z,347.45
2023-04-26T22:57:15.468Z,355.42
2023-04-26T22:59:44.025Z,326.40
2023-04-26T23:02:15.269Z,344.65
2023-04-26T23:04:43.888Z,356.27
2023-04-26T23:07:12.617Z,351.83
2023-04-26T23:09:41.248Z,353.45
2023-04-26T23:12:09.807Z,346.48
2023-04-26T23:14:39.667Z,344.02
2023-04-26T23:17:08.226Z,336.48
2023-04-26T23:19:37.161Z,351.73
2023-04-26T23:22:05.601Z,340.50
2023-04-26T23:24:34.049Z,363.00
2023-04-26T23:27:02.685Z,332.60
2023-04-26T23:29:31.424Z,355.77
2023-04-26T23:32:01.399Z,345.52
2023-04-26T23:34:29.839Z,341.98
2023-04-26T23:36:58.803Z,330.70
2023-04-26T23:39:36.772Z,324.30
2023-04-26T23:42:05.659Z,368.63
2023-04-26T23:44:34.066Z,345.20
2023-04-26T23:47:03.879Z,363.98
2023-04-26T23:49:32.320Z,348.30
2023-04-26T23:52:00.775Z,359.88
2023-04-26T23:54:29.253Z,334.80
2023-04-26T23:56:57.621Z,359.33
2023-04-26T23:59:26.159Z,345.80
